KEGE/EGE METAR and TAF weather

Enter ICAO airport designator
Station Type Date Time Source
KEGE METAR 2021/05/13 06:56 UTC NOAA

KEGE 130656Z AUTO 09005KT 10SM CLR 04/M03 A3032 RMK AO2 SLP252 T00391028 PNO $


Station Type Date Time Source
KEGE Decoded METAR 2021/05/13 06:56 UTC NOAA

Eagle County Regional, CO, United States (KEGE) 39-39N 106-55W
May 13, 2021 - 02:56 AM EDT / 2021.05.13 0656 UTC
Wind: from the E (090 degrees) at 6 MPH (5 KT):0
Visibility: 10 mile(s):0
Sky conditions: clear
Temperature: 39.0 F (3.9 C)
Dew Point: 27.0 F (-2.8 C)
Relative Humidity: 61%
Pressure (altimeter): 30.32 in. Hg (1026 hPa)
ob: KEGE 130656Z AUTO 09005KT 10SM CLR 04/M03 A3032 RMK AO2 SLP252 T00391028 PNO
cycle: 7

Station Type Date Time Source
KEGE TAF 2021/05/13 06:24 UTC NOAA

TAF KEGE 130522Z 1306/1406 11004KT P6SM SKC
FM131800 26010G21KT P6SM SCT250
FM140200 28008KT P6SM SCT250

Example: see airport list